createdAt,value
2022-08-30T00:02:09.313Z,7.93
2022-08-30T00:04:35.877Z,7.88
2022-08-30T00:07:03.835Z,7.38
2022-08-30T00:09:32.033Z,7.90
2022-08-30T00:11:58.588Z,7.30
2022-08-30T00:14:27.525Z,6.88
2022-08-30T00:16:54.275Z,7.18
2022-08-30T00:19:20.881Z,7.85
2022-08-30T00:21:47.414Z,6.82
2022-08-30T00:24:13.937Z,6.72
2022-08-30T00:26:40.478Z,7.07
2022-08-30T00:29:07.025Z,6.85
2022-08-30T00:31:33.592Z,5.80
2022-08-30T00:34:00.189Z,6.18
2022-08-30T00:36:27.731Z,6.90
2022-08-30T00:38:54.382Z,4.80
2022-08-30T00:41:22.025Z,5.22
2022-08-30T00:43:48.710Z,7.20
2022-08-30T00:46:15.272Z,5.07
2022-08-30T00:48:48.007Z,5.03
2022-08-30T00:51:16.158Z,5.43
2022-08-30T00:53:46.593Z,5.47
2022-08-30T00:56:13.750Z,5.88
2022-08-30T00:58:45.741Z,4.85
2022-08-30T01:01:13.056Z,5.60
2022-08-30T01:03:41.378Z,6.60
2022-08-30T01:06:08.134Z,5.73
2022-08-30T01:08:35.354Z,7.03
2022-08-30T01:11:03.790Z,5.57
2022-08-30T01:13:31.796Z,5.93
2022-08-30T01:16:00.153Z,5.90
2022-08-30T01:18:27.923Z,5.68
2022-08-30T01:21:28.270Z,5.28
2022-08-30T01:23:59.592Z,4.85
2022-08-30T01:26:28.691Z,5.27
2022-08-30T01:31:24.154Z,5.50
2022-08-30T01:33:51.158Z,5.68
2022-08-30T01:36:20.099Z,5.80
2022-08-30T01:38:50.278Z,5.25
2022-08-30T01:41:20.894Z,6.28
2022-08-30T01:43:48.562Z,5.55
2022-08-30T01:46:17.999Z,6.07
2022-08-30T01:48:51.962Z,5.53
2022-08-30T01:51:21.984Z,5.70
2022-08-30T01:53:48.561Z,4.72
2022-08-30T01:56:15.643Z,5.00
2022-08-30T01:58:43.388Z,5.90
2022-08-30T02:01:12.880Z,5.28
2022-08-30T02:03:41.603Z,5.05
2022-08-30T02:06:11.137Z,5.20
2022-08-30T02:08:40.205Z,5.30
2022-08-30T02:11:09.449Z,4.90
2022-08-30T02:13:40.241Z,5.15
2022-08-30T02:16:14.126Z,4.80
2022-08-30T02:18:40.815Z,5.38
2022-08-30T02:21:08.239Z,5.65
2022-08-30T02:23:35.105Z,5.82
2022-08-30T02:26:01.924Z,5.30
2022-08-30T02:28:29.196Z,4.75
2022-08-30T02:30:55.851Z,4.90
2022-08-30T02:33:22.530Z,4.18
2022-08-30T02:35:49.134Z,4.72
2022-08-30T02:38:15.903Z,4.70
2022-08-30T02:40:46.645Z,4.85
2022-08-30T02:43:13.332Z,5.18
2022-08-30T02:45:40.007Z,5.00
2022-08-30T02:48:06.654Z,4.45
2022-08-30T02:50:33.477Z,4.97
2022-08-30T02:53:00.094Z,4.90
2022-08-30T02:55:26.857Z,4.65
2022-08-30T02:57:53.449Z,4.60
2022-08-30T03:00:20.932Z,5.05
2022-08-30T03:02:48.106Z,4.60
2022-08-30T03:05:16.425Z,4.40
2022-08-30T03:07:43.606Z,5.93
2022-08-30T03:10:11.034Z,4.28
2022-08-30T03:12:38.309Z,4.28
2022-08-30T03:15:06.713Z,4.38
2022-08-30T03:17:33.369Z,4.22
2022-08-30T03:20:02.292Z,4.90
2022-08-30T03:22:29.424Z,4.68
2022-08-30T03:25:00.157Z,4.05
2022-08-30T03:27:27.797Z,4.85
2022-08-30T03:29:55.092Z,4.07
2022-08-30T03:32:21.904Z,4.20
2022-08-30T03:34:48.486Z,4.22
2022-08-30T03:37:15.019Z,4.97
2022-08-30T03:39:41.636Z,3.28
2022-08-30T03:42:08.376Z,3.88
2022-08-30T03:44:35.574Z,3.63
2022-08-30T03:47:03.567Z,3.78
2022-08-30T03:49:30.202Z,3.88
2022-08-30T03:51:56.782Z,4.15
2022-08-30T03:54:24.758Z,3.50
2022-08-30T03:56:51.802Z,3.95
2022-08-30T03:59:18.480Z,3.80
2022-08-30T04:01:45.950Z,4.05
2022-08-30T04:04:14.515Z,4.00
2022-08-30T04:06:42.875Z,3.42
2022-08-30T04:09:09.803Z,3.78
2022-08-30T04:11:36.392Z,3.75
2022-08-30T04:14:02.996Z,3.85
2022-08-30T04:16:29.656Z,4.10
2022-08-30T04:18:56.313Z,3.65
2022-08-30T04:21:23.151Z,4.15
2022-08-30T04:23:49.731Z,4.28
2022-08-30T04:26:16.334Z,3.75
2022-08-30T04:28:42.900Z,3.75
2022-08-30T04:31:16.787Z,4.53
2022-08-30T04:33:43.972Z,4.78
2022-08-30T04:36:10.944Z,4.63
2022-08-30T04:38:39.320Z,4.90
2022-08-30T04:41:16.361Z,5.28
2022-08-30T04:43:44.726Z,4.93
2022-08-30T04:46:13.899Z,5.60
2022-08-30T04:48:40.775Z,4.75
2022-08-30T04:51:10.859Z,4.85
2022-08-30T04:53:37.615Z,4.55
2022-08-30T04:56:09.468Z,4.57
2022-08-30T04:58:36.016Z,4.03
2022-08-30T05:01:02.710Z,4.93
2022-08-30T05:03:29.353Z,4.15
2022-08-30T05:05:55.914Z,4.22
2022-08-30T05:08:24.772Z,4.55
2022-08-30T05:13:20.832Z,3.72
2022-08-30T05:15:51.226Z,4.80
2022-08-30T05:18:21.391Z,5.00
2022-08-30T05:20:47.964Z,5.13
2022-08-30T05:23:14.766Z,5.68
2022-08-30T05:25:42.368Z,5.15
2022-08-30T05:28:09.469Z,4.65
2022-08-30T05:30:37.277Z,4.68
2022-08-30T05:33:03.927Z,5.05
2022-08-30T05:35:30.540Z,5.30
2022-08-30T05:37:57.203Z,5.05
2022-08-30T05:40:23.824Z,4.97
2022-08-30T05:42:51.301Z,4.55
2022-08-30T05:45:18.080Z,4.40
2022-08-30T05:47:44.613Z,4.35
2022-08-30T05:50:11.412Z,4.55
2022-08-30T05:52:38.869Z,4.93
2022-08-30T05:55:07.809Z,4.70
2022-08-30T05:57:36.635Z,4.78
2022-08-30T06:00:11.595Z,4.63
2022-08-30T06:02:38.323Z,4.85
2022-08-30T06:05:05.232Z,5.25
2022-08-30T06:07:32.407Z,4.97
2022-08-30T06:09:58.947Z,4.75
2022-08-30T06:12:25.820Z,4.97
2022-08-30T06:14:53.607Z,4.90
2022-08-30T06:17:20.468Z,4.60
2022-08-30T06:19:47.006Z,4.07
2022-08-30T06:22:13.626Z,3.97
2022-08-30T06:24:57.099Z,5.68
2022-08-30T06:27:24.284Z,5.40
2022-08-30T06:29:52.068Z,5.65
2022-08-30T06:32:18.911Z,5.53
2022-08-30T06:34:45.483Z,5.55
2022-08-30T06:37:11.999Z,5.50
2022-08-30T06:39:57.535Z,6.10
2022-08-30T06:42:24.474Z,6.78
2022-08-30T06:44:51.411Z,5.10
2022-08-30T06:47:18.147Z,4.72
2022-08-30T06:49:44.718Z,4.55
2022-08-30T06:52:11.704Z,4.82
2022-08-30T06:54:38.753Z,4.65
2022-08-30T06:57:05.493Z,4.22
2022-08-30T06:59:33.179Z,5.85
2022-08-30T07:01:59.868Z,5.55
2022-08-30T07:04:26.524Z,5.40
2022-08-30T07:06:53.303Z,4.82
2022-08-30T07:09:20.299Z,6.07
2022-08-30T07:11:50.378Z,5.15
2022-08-30T07:14:16.911Z,5.30
2022-08-30T07:16:44.464Z,5.10
2022-08-30T07:19:18.577Z,5.13
2022-08-30T07:21:49.350Z,5.10
2022-08-30T07:24:16.813Z,5.27
2022-08-30T07:26:49.096Z,5.60
2022-08-30T07:29:17.029Z,5.43
2022-08-30T07:31:44.365Z,5.57
2022-08-30T07:34:10.990Z,5.78
2022-08-30T07:36:38.923Z,5.40
2022-08-30T07:39:06.942Z,4.47
2022-08-30T07:41:38.572Z,4.70
2022-08-30T07:44:09.315Z,4.75
2022-08-30T07:46:38.292Z,4.20
2022-08-30T07:49:05.960Z,4.82
2022-08-30T07:51:38.569Z,3.88
2022-08-30T07:54:05.329Z,3.65
2022-08-30T07:56:31.856Z,4.25
2022-08-30T07:58:58.372Z,4.25
2022-08-30T08:01:25.337Z,3.83
2022-08-30T08:03:52.391Z,3.50
2022-08-30T08:06:21.882Z,3.67
2022-08-30T08:08:48.925Z,3.60
2022-08-30T08:11:22.510Z,3.47
2022-08-30T08:13:54.232Z,4.38
2022-08-30T08:16:23.364Z,3.58
2022-08-30T08:18:50.093Z,3.67
2022-08-30T08:21:16.704Z,4.00
2022-08-30T08:23:43.408Z,3.88
2022-08-30T08:26:10.069Z,3.80
2022-08-30T08:28:36.764Z,3.92
2022-08-30T08:31:03.834Z,3.10
2022-08-30T08:33:30.675Z,3.35
2022-08-30T08:35:57.213Z,3.17
2022-08-30T08:38:23.756Z,2.92
2022-08-30T08:41:29.070Z,3.22
2022-08-30T08:43:55.811Z,3.50
2022-08-30T08:46:41.140Z,3.33
2022-08-30T08:49:12.490Z,3.25
2022-08-30T08:51:59.185Z,3.28
2022-08-30T08:54:49.334Z,3.28
2022-08-30T08:57:17.046Z,2.97
2022-08-30T08:59:45.396Z,2.70
2022-08-30T09:02:29.809Z,3.22
2022-08-30T09:05:01.200Z,2.63
2022-08-30T09:07:32.244Z,2.92
2022-08-30T09:10:00.609Z,3.58
2022-08-30T09:12:28.144Z,3.15
2022-08-30T09:15:01.774Z,2.58
2022-08-30T09:17:28.550Z,3.08
2022-08-30T09:19:55.630Z,2.53
2022-08-30T09:22:26.858Z,2.70
2022-08-30T09:25:10.995Z,2.63
2022-08-30T09:27:39.530Z,3.40
2022-08-30T09:30:28.810Z,2.13
2022-08-30T09:33:03.729Z,3.35
2022-08-30T09:35:44.408Z,2.30
2022-08-30T09:38:18.475Z,2.30
2022-08-30T09:40:45.098Z,2.92
2022-08-30T09:43:17.690Z,2.00
2022-08-30T09:45:47.491Z,2.25
2022-08-30T09:48:33.855Z,2.28
2022-08-30T09:51:10.914Z,2.08
2022-08-30T09:56:48.114Z,2.80
2022-08-30T09:59:42.764Z,2.33
2022-08-30T10:02:38.896Z,2.47
2022-08-30T10:05:23.705Z,2.15
2022-08-30T10:08:18.406Z,2.58
2022-08-30T10:10:56.135Z,2.58
2022-08-30T10:13:29.610Z,2.17
2022-08-30T10:16:19.341Z,2.13
2022-08-30T10:19:01.677Z,2.63
2022-08-30T10:21:37.333Z,1.95
2022-08-30T10:24:20.777Z,2.28
2022-08-30T10:26:55.717Z,2.15
2022-08-30T10:29:39.490Z,2.20
2022-08-30T10:32:29.733Z,1.90
2022-08-30T10:35:03.467Z,2.08
2022-08-30T10:37:34.919Z,2.10
2022-08-30T10:40:32.260Z,2.55
2022-08-30T10:43:03.042Z,2.47
2022-08-30T10:45:33.085Z,2.63
2022-08-30T10:48:02.410Z,2.83
2022-08-30T10:50:41.277Z,1.88
2022-08-30T10:53:16.674Z,2.95
2022-08-30T10:55:52.162Z,2.15
2022-08-30T10:58:19.889Z,2.05
2022-08-30T11:00:58.257Z,2.05
2022-08-30T11:03:36.843Z,2.55
2022-08-30T11:06:14.817Z,3.13
2022-08-30T11:09:12.448Z,2.40
2022-08-30T11:12:00.777Z,3.15
2022-08-30T11:14:29.636Z,2.87
2022-08-30T11:17:00.331Z,2.75
2022-08-30T11:19:39.581Z,2.40
2022-08-30T11:22:15.286Z,2.85
2022-08-30T11:25:10.141Z,3.25
2022-08-30T11:27:56.450Z,2.97
2022-08-30T11:30:27.179Z,2.55
2022-08-30T11:33:03.184Z,3.03
2022-08-30T11:35:52.489Z,3.13
2022-08-30T11:38:25.513Z,3.10
2022-08-30T11:41:07.741Z,3.28
2022-08-30T11:43:39.876Z,3.10
2022-08-30T11:46:37.527Z,2.95
2022-08-30T11:49:16.337Z,2.80
2022-08-30T11:54:52.922Z,2.92
2022-08-30T11:57:38.253Z,3.45
2022-08-30T12:00:25.329Z,3.50
2022-08-30T12:03:00.227Z,3.45
2022-08-30T12:05:35.836Z,3.10
2022-08-30T12:08:04.524Z,3.53
2022-08-30T12:10:47.291Z,3.42
2022-08-30T12:13:35.431Z,2.42
2022-08-30T12:16:03.397Z,2.70
2022-08-30T12:18:52.346Z,2.27
2022-08-30T12:21:22.025Z,3.08
2022-08-30T12:23:48.737Z,2.92
2022-08-30T12:26:17.510Z,2.83
2022-08-30T12:28:49.174Z,2.53
2022-08-30T12:31:22.168Z,2.45
2022-08-30T12:34:03.292Z,2.97
2022-08-30T12:36:40.397Z,2.70
2022-08-30T12:39:23.512Z,2.65
2022-08-30T12:41:50.504Z,2.45
2022-08-30T12:44:26.533Z,2.40
2022-08-30T12:47:01.408Z,2.58
2022-08-30T12:49:34.092Z,2.60
2022-08-30T12:52:38.644Z,2.58
2022-08-30T12:55:17.687Z,2.28
2022-08-30T12:57:54.722Z,2.45
2022-08-30T13:00:29.511Z,2.55
2022-08-30T13:03:01.888Z,2.50
2022-08-30T13:05:44.953Z,2.05
2022-08-30T13:08:37.107Z,2.50
2022-08-30T13:11:29.388Z,2.28
2022-08-30T13:14:18.385Z,2.67
2022-08-30T13:16:46.108Z,2.80
2022-08-30T13:19:32.664Z,2.38
2022-08-30T13:22:00.043Z,2.95
2022-08-30T13:24:27.096Z,2.65
2022-08-30T13:26:56.750Z,2.65
2022-08-30T13:29:27.197Z,2.53
2022-08-30T13:31:54.563Z,2.45
2022-08-30T13:34:22.696Z,2.38
2022-08-30T13:36:57.184Z,3.07
2022-08-30T13:39:24.378Z,2.58
2022-08-30T13:41:52.400Z,2.85
2022-08-30T13:44:19.083Z,2.80
2022-08-30T13:46:54.010Z,2.70
2022-08-30T13:52:20.901Z,3.05
2022-08-30T13:54:50.040Z,3.05
2022-08-30T13:57:53.432Z,4.60
2022-08-30T14:00:12.248Z,4.25
2022-08-30T14:02:45.107Z,10.38
2022-08-30T14:05:30.822Z,8.80
2022-08-30T14:08:00.038Z,3.75
2022-08-30T14:10:32.434Z,4.07
2022-08-30T14:13:08.023Z,3.53
2022-08-30T14:15:38.832Z,3.40
2022-08-30T14:18:06.815Z,2.60
2022-08-30T14:20:35.487Z,3.53
2022-08-30T14:23:10.031Z,3.00
2022-08-30T14:25:37.893Z,2.85
2022-08-30T14:28:07.635Z,2.95
2022-08-30T14:30:36.658Z,2.70
2022-08-30T14:33:03.624Z,2.47
2022-08-30T14:35:30.304Z,2.65
2022-08-30T14:37:57.168Z,2.45
2022-08-30T14:40:23.976Z,2.78
2022-08-30T14:42:50.623Z,2.67
2022-08-30T14:45:17.966Z,2.53
2022-08-30T14:47:46.546Z,2.50
2022-08-30T14:50:14.401Z,2.75
2022-08-30T14:52:40.982Z,2.28
2022-08-30T14:55:12.710Z,2.25
2022-08-30T14:57:39.375Z,2.17
2022-08-30T15:00:09.885Z,2.28
2022-08-30T15:02:36.872Z,2.22
2022-08-30T15:05:04.359Z,2.55
2022-08-30T15:07:34.892Z,2.30
2022-08-30T15:10:01.490Z,2.83
2022-08-30T15:12:28.075Z,2.88
2022-08-30T15:14:55.772Z,2.63
2022-08-30T15:17:23.892Z,2.63
2022-08-30T15:19:51.190Z,2.20
2022-08-30T15:22:17.922Z,2.25
2022-08-30T15:24:44.586Z,2.80
2022-08-30T15:27:15.478Z,3.00
2022-08-30T15:29:42.301Z,2.60
2022-08-30T15:32:08.880Z,2.38
2022-08-30T15:34:35.977Z,3.60
2022-08-30T15:37:03.325Z,3.20
2022-08-30T15:39:30.293Z,3.13
2022-08-30T15:42:00.750Z,2.70
2022-08-30T15:44:30.603Z,3.28
2022-08-30T15:46:57.400Z,2.97
2022-08-30T15:49:24.402Z,2.80
2022-08-30T15:51:53.868Z,3.45
2022-08-30T15:54:22.785Z,3.03
2022-08-30T15:56:49.335Z,3.03
2022-08-30T15:59:17.590Z,2.83
2022-08-30T16:01:45.427Z,3.08
2022-08-30T16:04:15.068Z,3.13
2022-08-30T16:06:41.940Z,3.25
2022-08-30T16:09:10.036Z,4.00
2022-08-30T16:11:38.580Z,4.23
2022-08-30T16:14:06.483Z,3.67
2022-08-30T16:16:33.449Z,3.70
2022-08-30T16:19:01.840Z,3.35
2022-08-30T16:21:30.802Z,3.28
2022-08-30T16:26:25.961Z,3.53
2022-08-30T16:28:53.133Z,3.75
2022-08-30T16:31:21.088Z,3.47
2022-08-30T16:33:48.255Z,4.40
2022-08-30T16:36:20.258Z,3.92
2022-08-30T16:38:48.600Z,3.90
2022-08-30T16:41:21.059Z,4.03
2022-08-30T16:43:49.300Z,4.38
2022-08-30T16:46:18.448Z,5.38
2022-08-30T16:48:46.290Z,7.13
2022-08-30T16:51:19.094Z,6.13
2022-08-30T16:53:46.131Z,6.75
2022-08-30T16:56:24.341Z,8.63
2022-08-30T17:01:28.203Z,5.93
2022-08-30T17:03:54.905Z,4.85
2022-08-30T17:06:21.926Z,4.30
2022-08-30T17:08:48.487Z,6.28
2022-08-30T17:11:22.393Z,4.32
2022-08-30T17:13:48.932Z,5.18
2022-08-30T17:16:17.770Z,4.00
2022-08-30T17:18:50.324Z,3.50
2022-08-30T17:21:16.846Z,3.97
2022-08-30T17:23:43.694Z,3.03
2022-08-30T17:26:11.516Z,2.63
2022-08-30T17:28:39.885Z,3.25
2022-08-30T17:31:09.197Z,3.40
2022-08-30T17:33:39.005Z,3.28
2022-08-30T17:36:07.763Z,3.10
2022-08-30T17:38:34.409Z,4.05
2022-08-30T17:41:05.463Z,3.28
2022-08-30T17:43:35.813Z,3.92
2022-08-30T17:46:18.567Z,3.78
2022-08-30T17:48:45.697Z,3.03
2022-08-30T17:51:13.215Z,3.22
2022-08-30T17:53:40.024Z,2.85
2022-08-30T17:56:06.649Z,3.13
2022-08-30T17:58:34.660Z,3.17
2022-08-30T18:01:14.360Z,3.03
2022-08-30T18:03:42.226Z,3.10
2022-08-30T18:06:12.894Z,3.30
2022-08-30T18:08:40.319Z,3.67
2022-08-30T18:11:07.593Z,3.33
2022-08-30T18:13:34.681Z,3.45
2022-08-30T18:16:02.614Z,3.53
2022-08-30T18:18:29.661Z,4.00
2022-08-30T18:20:56.397Z,3.20
2022-08-30T18:23:24.137Z,4.18
2022-08-30T18:26:02.093Z,3.42
2022-08-30T18:28:29.318Z,4.30
2022-08-30T18:30:57.020Z,4.00
2022-08-30T18:33:28.578Z,4.18
2022-08-30T18:35:55.965Z,4.38
2022-08-30T18:38:23.961Z,3.63
2022-08-30T18:40:52.135Z,3.40
2022-08-30T18:43:18.955Z,3.23
2022-08-30T18:45:51.398Z,3.33
2022-08-30T18:48:19.316Z,3.70
2022-08-30T18:50:46.327Z,3.13
2022-08-30T18:53:14.738Z,4.28
2022-08-30T18:55:55.546Z,4.55
2022-08-30T18:58:22.212Z,3.35
2022-08-30T19:00:49.478Z,3.95
2022-08-30T19:03:18.762Z,3.40
2022-08-30T19:05:45.572Z,3.57
2022-08-30T19:08:13.484Z,3.33
2022-08-30T19:10:40.216Z,3.58
2022-08-30T19:13:07.115Z,3.10
2022-08-30T19:15:35.625Z,3.95
2022-08-30T19:18:07.382Z,4.15
2022-08-30T19:20:45.263Z,4.40
2022-08-30T19:23:12.752Z,4.13
2022-08-30T19:25:40.719Z,3.78
2022-08-30T19:28:07.928Z,3.33
2022-08-30T19:30:35.693Z,4.47
2022-08-30T19:33:02.338Z,4.10
2022-08-30T19:35:29.914Z,3.97
2022-08-30T19:37:57.460Z,3.55
2022-08-30T19:40:24.125Z,3.60
2022-08-30T19:42:52.587Z,5.75
2022-08-30T19:45:21.758Z,7.03
2022-08-30T19:47:49.304Z,5.97
2022-08-30T19:50:16.952Z,7.18
2022-08-30T19:52:45.637Z,8.27
2022-08-30T19:55:14.007Z,6.57
2022-08-30T19:57:43.436Z,5.97
2022-08-30T20:00:12.514Z,6.15
2022-08-30T20:02:43.347Z,5.15
2022-08-30T20:05:12.574Z,5.47
2022-08-30T20:07:39.924Z,5.70
2022-08-30T20:10:10.287Z,4.47
2022-08-30T20:12:39.699Z,4.65
2022-08-30T20:15:14.668Z,4.72
2022-08-30T20:18:03.329Z,5.80
2022-08-30T20:20:33.318Z,5.50
2022-08-30T20:23:00.557Z,3.80
2022-08-30T20:25:28.777Z,4.57
2022-08-30T20:27:56.046Z,4.15
2022-08-30T20:30:22.631Z,4.07
2022-08-30T20:32:49.469Z,4.10
2022-08-30T20:35:17.771Z,3.88
2022-08-30T20:37:45.571Z,4.47
2022-08-30T20:40:15.844Z,4.20
2022-08-30T20:42:45.783Z,3.85
2022-08-30T20:45:15.057Z,4.35
2022-08-30T20:47:42.985Z,4.05
2022-08-30T20:50:13.903Z,4.22
2022-08-30T20:52:41.218Z,4.85
2022-08-30T20:55:09.422Z,4.10
2022-08-30T20:57:36.175Z,4.23
2022-08-30T21:00:04.353Z,3.80
2022-08-30T21:02:33.659Z,4.38
2022-08-30T21:05:00.312Z,3.60
2022-08-30T21:07:27.156Z,3.70
2022-08-30T21:09:54.096Z,3.40
2022-08-30T21:12:20.742Z,4.38
2022-08-30T21:14:47.322Z,4.40
2022-08-30T21:17:13.888Z,4.07
2022-08-30T21:19:43.838Z,3.58
2022-08-30T21:22:11.360Z,4.25
2022-08-30T21:24:38.258Z,3.45
2022-08-30T21:27:05.127Z,4.00
2022-08-30T21:29:33.214Z,4.28
2022-08-30T21:31:59.774Z,4.03
2022-08-30T21:34:26.456Z,3.80
2022-08-30T21:36:53.323Z,3.58
2022-08-30T21:39:22.860Z,3.67
2022-08-30T21:41:53.033Z,4.55
2022-08-30T21:44:22.599Z,3.55
2022-08-30T21:46:52.180Z,3.80
2022-08-30T21:49:21.664Z,3.88
2022-08-30T21:51:50.731Z,3.95
2022-08-30T21:56:46.992Z,4.00
2022-08-30T21:59:14.033Z,3.90
2022-08-30T22:01:43.267Z,3.78
2022-08-30T22:04:11.184Z,4.40
2022-08-30T22:06:40.705Z,3.95
2022-08-30T22:09:10.527Z,4.63
2022-08-30T22:11:37.437Z,4.28
2022-08-30T22:14:05.433Z,4.20
2022-08-30T22:16:32.553Z,4.03
2022-08-30T22:18:59.356Z,3.60
2022-08-30T22:21:29.323Z,4.35
2022-08-30T22:23:56.973Z,4.57
2022-08-30T22:26:24.103Z,3.78
2022-08-30T22:28:52.514Z,4.18
2022-08-30T22:31:20.561Z,4.32
2022-08-30T22:33:48.020Z,3.95
2022-08-30T22:36:21.174Z,3.97
2022-08-30T22:38:51.400Z,5.03
2022-08-30T22:41:25.559Z,4.60
2022-08-30T22:46:25.656Z,3.95
2022-08-30T22:49:02.373Z,4.38
2022-08-30T22:51:29.576Z,4.10
2022-08-30T22:53:56.611Z,3.95
2022-08-30T22:56:25.845Z,4.10
2022-08-30T22:58:53.613Z,4.28
2022-08-30T23:01:20.190Z,4.28
2022-08-30T23:03:46.876Z,4.80
2022-08-30T23:06:13.489Z,4.65
2022-08-30T23:08:40.033Z,4.20
2022-08-30T23:11:06.738Z,5.15
2022-08-30T23:13:33.387Z,5.00
2022-08-30T23:16:05.256Z,4.18
2022-08-30T23:18:33.134Z,4.88
2022-08-30T23:21:05.204Z,5.20
2022-08-30T23:23:50.188Z,4.32
2022-08-30T23:26:38.404Z,5.65
2022-08-30T23:29:24.829Z,8.43
2022-08-30T23:32:10.254Z,6.88
2022-08-30T23:34:55.434Z,5.07
2022-08-30T23:37:40.990Z,5.10
2022-08-30T23:40:26.720Z,4.82
2022-08-30T23:43:11.974Z,4.80
2022-08-30T23:45:57.448Z,4.07
2022-08-30T23:48:50.568Z,4.82
2022-08-30T23:51:37.080Z,5.22
2022-08-30T23:54:23.967Z,4.65
2022-08-30T23:57:09.392Z,5.28
2022-08-30T23:59:54.549Z,5.03
